Time;durP1;ratioP1;P1;durP2;ratioP2;P2;SDS_P1;SDS_P2;PMS_P1;PMS_P2;Temp;Humidity;BMP_temperature;BMP_pressure;BME280_temperature;BME280_humidity;BME280_pressure;Samples;Min_cycle;Max_cycle;Signal;HPM_P1;HPM_P2
2023/01/29 00:00:13;;;;;;;20.73;15.43;;;;;;;1.01;99.87;102860.03;1032494;28;20305;-76
2023/01/29 00:00:45;;;;;;;23.73;15.68;;;;;;;1.10;99.88;102859.44;1031957;28;20352;-76
2023/01/29 00:01:16;;;;;;;22.60;15.30;;;;;;;1.09;99.71;102857.72;1031888;28;20301;-76
2023/01/29 00:01:48;;;;;;;23.70;15.93;;;;;;;1.01;99.53;102860.03;1032554;28;20655;-76
2023/01/29 00:02:20;;;;;;;26.65;15.32;;;;;;;0.98;99.88;102850.59;1029131;28;20927;-76
2023/01/29 00:02:52;;;;;;;24.52;14.98;;;;;;;1.01;99.86;102847.75;1032585;28;20296;-76
2023/01/29 00:03:23;;;;;;;24.50;16.20;;;;;;;0.97;99.85;102855.94;1032637;28;20351;-76
2023/01/29 00:03:55;;;;;;;25.60;15.82;;;;;;;0.96;100.00;102851.66;1032901;28;20827;-76
2023/01/29 00:04:27;;;;;;;21.85;16.05;;;;;;;1.01;100.00;102855.63;1026852;28;20298;-76
2023/01/29 00:04:58;;;;;;;22.42;14.43;;;;;;;1.01;99.84;102846.91;1032670;28;20312;-76
2023/01/29 00:05:47;;;;;;;27.63;16.88;;;;;;;1.07;99.64;102857.00;1032393;28;20436;-76
2023/01/29 00:06:19;;;;;;;26.42;17.17;;;;;;;1.04;99.87;102855.41;1032544;28;20300;-75
2023/01/29 00:06:50;;;;;;;23.83;15.43;;;;;;;1.00;99.93;102853.13;1035422;28;20324;-76
2023/01/29 00:07:22;;;;;;;24.15;15.68;;;;;;;1.00;100.00;102858.38;1028327;28;20321;-76
2023/01/29 00:07:55;;;;;;;21.15;15.00;;;;;;;1.00;99.71;102853.94;1028860;28;20305;-76
2023/01/29 00:08:27;;;;;;;21.10;15.15;;;;;;;1.00;100.00;102858.38;1024539;29;20303;-76
2023/01/29 00:08:59;;;;;;;23.33;15.65;;;;;;;0.99;100.00;102861.94;1021237;29;20306;-76
2023/01/29 00:09:31;;;;;;;24.08;17.17;;;;;;;0.98;99.90;102855.84;1027324;28;20317;-75
2023/01/29 00:10:02;;;;;;;22.02;15.30;;;;;;;0.98;99.55;102861.09;1029047;28;20301;-76
2023/01/29 00:10:34;;;;;;;23.58;15.10;;;;;;;1.03;100.00;102863.41;1033382;28;20344;-76
2023/01/29 00:11:07;;;;;;;24.90;16.85;;;;;;;0.99;99.53;102862.78;1036592;28;20402;-76
2023/01/29 00:11:39;;;;;;;24.73;16.73;;;;;;;0.99;99.52;102862.78;1026886;28;20318;-76
2023/01/29 00:12:10;;;;;;;23.10;15.07;;;;;;;0.98;99.72;102860.25;1024868;29;20338;-76
2023/01/29 00:12:42;;;;;;;21.80;15.50;;;;;;;0.97;99.97;102861.19;1024347;29;20318;-76
2023/01/29 00:13:13;;;;;;;22.52;15.07;;;;;;;0.98;99.84;102865.50;1025206;28;20306;-76
2023/01/29 00:13:46;;;;;;;24.80;16.67;;;;;;;0.99;99.88;102856.69;1026461;28;20674;-76
2023/01/29 00:14:18;;;;;;;27.80;17.63;;;;;;;1.03;99.90;102859.00;1028324;28;20969;-76
2023/01/29 00:14:50;;;;;;;21.08;14.63;;;;;;;1.03;99.52;102859.00;1028699;28;20297;-76
2023/01/29 00:15:21;;;;;;;20.20;15.25;;;;;;;1.03;99.94;102866.03;1028689;28;20680;-76
2023/01/29 00:15:55;;;;;;;25.23;16.02;;;;;;;1.00;100.00;102864.44;1032126;28;20316;-76
2023/01/29 00:16:26;;;;;;;20.85;15.02;;;;;;;1.01;100.00;102854.78;1029473;28;20309;-76
2023/01/29 00:16:58;;;;;;;22.45;14.95;;;;;;;1.01;99.93;102860.03;1028464;28;20674;-76
2023/01/29 00:17:30;;;;;;;22.63;15.73;;;;;;;1.01;99.93;102865.28;1028667;28;20301;-76
2023/01/29 00:18:01;;;;;;;21.92;14.85;;;;;;;1.01;100.00;102865.28;1029153;28;20308;-75
2023/01/29 00:18:37;;;;;;;19.85;14.93;;;;;;;0.98;100.00;102865.50;1029047;28;20631;-76
2023/01/29 00:19:09;;;;;;;24.23;16.10;;;;;;;1.01;100.00;102860.88;1024681;28;20412;-76
2023/01/29 00:19:40;;;;;;;23.42;15.48;;;;;;;1.00;100.00;102858.38;1024466;29;20294;-76
2023/01/29 00:20:12;;;;;;;24.23;14.98;;;;;;;0.98;100.00;102850.59;1025605;28;20306;-76
2023/01/29 00:20:44;;;;;;;23.90;15.95;;;;;;;0.98;100.00;102865.50;1029529;28;20310;-76
2023/01/29 00:21:17;;;;;;;25.63;16.15;;;;;;;0.99;100.00;102846.19;1032594;28;20312;-76
2023/01/29 00:21:49;;;;;;;27.00;17.48;;;;;;;0.98;100.00;102860.25;1032069;28;20305;-75
2023/01/29 00:22:20;;;;;;;23.08;15.48;;;;;;;0.96;100.00;102851.66;1028646;28;20297;-76
2023/01/29 00:22:52;;;;;;;24.48;16.77;;;;;;;0.96;100.00;102842.00;1028133;28;20313;-76
2023/01/29 00:23:24;;;;;;;25.60;16.10;;;;;;;0.98;100.00;102849.75;1028937;28;20302;-76
2023/01/29 00:23:55;;;;;;;22.60;15.18;;;;;;;0.99;100.00;102848.81;1028154;28;20321;-76
2023/01/29 00:24:27;;;;;;;21.50;14.82;;;;;;;0.99;100.00;102846.19;1028905;28;20322;-76
2023/01/29 00:24:59;;;;;;;23.75;16.52;;;;;;;1.00;100.00;102847.88;1032879;28;20372;-76
2023/01/29 00:25:30;;;;;;;27.17;16.63;;;;;;;1.00;100.00;102858.38;1025038;28;20310;-76
2023/01/29 00:26:02;;;;;;;21.70;15.63;;;;;;;1.00;100.00;102842.63;1028358;28;20408;-76
2023/01/29 00:26:34;;;;;;;26.45;16.27;;;;;;;1.00;100.00;102847.88;1028842;28;20298;-76
2023/01/29 00:27:05;;;;;;;24.85;15.93;;;;;;;1.01;100.00;102846.91;1024756;28;20654;-76
2023/01/29 00:27:39;;;;;;;22.77;16.73;;;;;;;1.00;100.00;102845.25;1032226;28;20300;-76
2023/01/29 00:28:11;;;;;;;23.83;14.73;;;;;;;1.01;100.00;102849.53;1028316;28;20662;-76
2023/01/29 00:28:43;;;;;;;22.05;14.85;;;;;;;1.01;100.00;102849.53;1028441;28;20301;-76
2023/01/29 00:29:16;;;;;;;22.83;14.82;;;;;;;1.00;100.00;102842.63;1028604;28;20298;-76
2023/01/29 00:30:08;;;;;;;24.45;15.25;;;;;;;0.95;100.00;102845.56;1025042;28;20389;-76
2023/01/29 00:30:40;;;;;;;19.50;13.90;;;;;;;1.03;100.00;102839.78;1027970;28;20289;-75
2023/01/29 00:31:17;;;;;;;24.10;15.60;;;;;;;1.03;100.00;102842.41;1024428;29;20047;-76
2023/01/29 00:31:49;;;;;;;25.52;16.45;;;;;;;0.98;100.00;102840.09;1024641;29;20389;-75
2023/01/29 00:32:21;;;;;;;23.02;16.55;;;;;;;1.00;100.00;102840.84;1024444;29;20298;-76
2023/01/29 00:32:52;;;;;;;23.85;15.75;;;;;;;1.04;100.00;102836.22;1027050;28;20302;-76
2023/01/29 00:33:24;;;;;;;22.23;14.63;;;;;;;1.15;100.00;102841.59;1032582;28;20759;-76
2023/01/29 00:33:57;;;;;;;21.15;15.05;;;;;;;1.07;100.00;102836.00;1028460;28;20884;-76
2023/01/29 00:34:28;;;;;;;25.42;15.55;;;;;;;1.02;100.00;102830.22;1024957;28;20306;-76
2023/01/29 00:35:00;;;;;;;25.73;16.35;;;;;;;0.99;100.00;102841.78;1020130;29;20311;-75
2023/01/29 00:35:32;;;;;;;20.75;15.57;;;;;;;0.98;100.00;102834.00;1016845;29;20311;-76
2023/01/29 00:36:05;;;;;;;21.65;16.05;;;;;;;0.98;100.00;102834.84;1017205;29;20379;-76
2023/01/29 00:36:37;;;;;;;22.95;15.98;;;;;;;0.96;100.00;102825.41;1019794;29;20295;-76
2023/01/29 00:37:08;;;;;;;22.38;15.93;;;;;;;0.92;100.00;102824.78;1021000;29;20313;-76
2023/01/29 00:37:40;;;;;;;25.55;16.30;;;;;;;0.93;100.00;102826.47;1025472;28;20290;-76
2023/01/29 00:38:12;;;;;;;22.85;15.23;;;;;;;0.99;100.00;102825.19;1029487;28;20779;-76
2023/01/29 00:38:43;;;;;;;23.60;16.67;;;;;;;1.01;100.00;102818.91;1036369;28;20818;-76
2023/01/29 00:39:15;;;;;;;26.65;17.08;;;;;;;0.99;100.00;102819.94;1032709;28;20301;-76
2023/01/29 00:39:47;;;;;;;24.30;16.73;;;;;;;1.01;100.00;102818.91;1032421;28;20301;-76
2023/01/29 00:40:18;;;;;;;26.33;15.88;;;;;;;1.01;100.00;102831.19;1028227;28;20301;-75
2023/01/29 00:45:22;;;;;;;24.13;14.10;;;;;;;1.04;100.00;102808.19;1016108;29;20312;-76
2023/01/29 00:45:54;;;;;;;24.27;15.15;;;;;;;1.03;100.00;102810.91;1012279;29;20787;-76
2023/01/29 00:46:25;;;;;;;24.67;14.95;;;;;;;1.00;100.00;102811.97;1013794;29;20331;-76
2023/01/29 00:46:58;;;;;;;21.55;16.02;;;;;;;1.11;100.00;102808.63;1012270;29;20301;-76
2023/01/29 00:47:29;;;;;;;24.42;14.57;;;;;;;1.05;100.00;102804.63;1012393;29;20304;-76
2023/01/29 00:48:02;;;;;;;23.85;15.43;;;;;;;1.03;100.00;102809.13;1009271;29;20384;-76
2023/01/29 00:48:34;;;;;;;21.50;15.18;;;;;;;1.02;100.00;102804.00;1008511;29;20301;-75
2023/01/29 00:49:06;;;;;;;22.70;15.13;;;;;;;1.03;100.00;102800.41;1024017;29;20310;-76
2023/01/29 00:49:37;;;;;;;24.23;14.68;;;;;;;1.00;100.00;102800.63;1020471;29;20311;-76
2023/01/29 00:50:10;;;;;;;19.20;15.05;;;;;;;0.98;100.00;102797.28;1020655;29;20307;-76
2023/01/29 00:50:42;;;;;;;22.23;15.63;;;;;;;0.90;100.00;102798.66;1019114;29;20643;-75
2023/01/29 00:51:14;;;;;;;24.95;17.33;;;;;;;0.96;100.00;102799.16;1025703;28;20400;-76
2023/01/29 00:52:22;;;;;;;24.33;15.80;;;;;;;0.89;100.00;102793.50;1032293;28;20317;-76
2023/01/29 00:52:40;;;;;;;22.40;15.15;;;;;;;0.91;100.00;102791.63;1036090;28;20296;-76
2023/01/29 00:53:13;;;;;;;24.17;15.23;;;;;;;0.99;100.00;102796.34;1028543;28;20298;-76
2023/01/29 00:53:44;;;;;;;19.65;13.73;;;;;;;0.93;100.00;102794.97;1024534;29;20310;-76
2023/01/29 00:54:16;;;;;;;26.90;13.90;;;;;;;0.92;100.00;102793.31;1024200;29;20302;-76
2023/01/29 00:54:48;;;;;;;27.40;17.70;;;;;;;0.90;100.00;102798.66;1025109;28;20808;-76
2023/01/29 00:55:19;;;;;;;25.67;16.27;;;;;;;0.91;100.00;102796.88;1024730;28;20299;-75
2023/01/29 00:55:51;;;;;;;22.75;14.48;;;;;;;0.91;100.00;102799.50;1024196;29;20290;-76
2023/01/29 00:56:24;;;;;;;24.17;16.30;;;;;;;0.92;100.00;102796.75;1024397;29;20379;-75
2023/01/29 00:56:55;;;;;;;24.48;16.15;;;;;;;0.91;100.00;102797.72;1021584;28;20331;-76
2023/01/29 00:57:29;;;;;;;22.92;16.02;;;;;;;1.01;100.00;102807.56;1020899;29;20387;-76
2023/01/29 00:58:00;;;;;;;23.63;16.33;;;;;;;0.96;100.00;102807.03;1019221;29;20421;-75
2023/01/29 00:58:35;;;;;;;23.15;16.63;;;;;;;0.93;100.00;102801.06;1020769;29;20303;-76
2023/01/29 00:59:06;;;;;;;25.15;15.90;;;;;;;0.95;100.00;102810.63;1025920;28;20303;-76
2023/01/29 00:59:38;;;;;;;25.95;16.27;;;;;;;0.89;100.00;102804.84;1027834;28;20366;-76
2023/01/29 01:00:12;;;;;;;26.25;15.88;;;;;;;0.95;100.00;102802.75;1023559;29;20311;-75
2023/01/29 01:00:44;;;;;;;25.85;16.10;;;;;;;0.89;100.00;102812.72;1021081;29;20311;-76
2023/01/29 01:01:16;;;;;;;23.38;16.30;;;;;;;0.88;100.00;102805.78;1024857;28;20299;-76
2023/01/29 01:03:32;;;;;;;22.83;14.85;;;;;;;0.88;100.00;102803.16;1031861;28;20301;-76
2023/01/29 01:04:04;;;;;;;29.20;16.52;;;;;;;0.88;100.00;102808.41;1027895;28;20298;-76
2023/01/29 01:04:36;;;;;;;24.67;14.70;;;;;;;0.87;100.00;102806.75;1019463;29;20394;-76
2023/01/29 01:05:12;;;;;;;23.35;15.75;;;;;;;0.91;100.00;102802.94;1020534;29;20318;-76
2023/01/29 01:05:44;;;;;;;20.98;14.82;;;;;;;0.90;100.00;102806.53;1023576;29;20434;-76
2023/01/29 01:06:16;;;;;;;23.10;16.13;;;;;;;0.89;100.00;102810.09;1016909;29;20360;-76
2023/01/29 01:06:47;;;;;;;23.00;15.32;;;;;;;0.91;100.00;102804.75;1020912;29;20369;-76
2023/01/29 01:07:19;;;;;;;22.95;14.65;;;;;;;0.98;100.00;102813.03;1024271;28;20317;-76
2023/01/29 01:07:52;;;;;;;22.70;15.18;;;;;;;0.97;100.00;102808.72;1024243;28;20693;-75
2023/01/29 01:10:30;;;;;;;21.30;15.60;;;;;;;0.90;100.00;102810.94;1014308;29;20307;-76
2023/01/29 01:11:04;;;;;;;21.90;15.55;;;;;;;0.93;100.00;102810.72;1011626;29;20296;-76
2023/01/29 01:11:36;;;;;;;23.55;15.57;;;;;;;0.93;100.00;102811.56;1011842;29;20578;-76
2023/01/29 01:12:07;;;;;;;27.40;16.52;;;;;;;0.91;100.00;102817.84;1012596;29;20301;-76
2023/01/29 01:12:39;;;;;;;24.27;16.30;;;;;;;0.92;100.00;102809.88;1019078;29;20304;-76
2023/01/29 01:13:11;;;;;;;19.88;14.88;;;;;;;0.93;100.00;102808.94;1016717;29;20552;-76
2023/01/29 01:13:43;;;;;;;26.90;17.45;;;;;;;0.95;100.00;102813.25;1023874;29;20305;-76
2023/01/29 01:14:14;;;;;;;24.10;16.27;;;;;;;0.95;100.00;102808.00;1020738;28;20310;-75
2023/01/29 01:14:46;;;;;;;24.27;15.55;;;;;;;0.93;100.00;102806.31;1027678;28;20313;-75
2023/01/29 01:15:18;;;;;;;25.25;16.52;;;;;;;0.97;100.00;102806.94;1024535;28;20301;-76
2023/01/29 01:15:50;;;;;;;23.73;16.58;;;;;;;0.90;100.00;102806.53;1027950;28;20298;-76
2023/01/29 01:16:21;;;;;;;23.85;16.25;;;;;;;1.03;100.00;102810.91;1019669;29;20295;-76
2023/01/29 01:16:53;;;;;;;25.27;16.45;;;;;;;0.96;100.00;102802.63;1020191;29;20391;-76
2023/01/29 01:17:25;;;;;;;23.55;16.38;;;;;;;0.99;100.00;102798.97;1020231;29;20346;-76
2023/01/29 01:17:58;;;;;;;22.60;16.40;;;;;;;0.96;100.00;102804.41;1020386;28;20730;-76
2023/01/29 01:18:30;;;;;;;25.20;17.88;;;;;;;0.92;100.00;102802.00;1023912;29;20823;-76
2023/01/29 01:19:02;;;;;;;28.92;18.88;;;;;;;0.92;100.00;102809.88;1024207;28;20574;-76
2023/01/29 01:19:36;;;;;;;25.67;16.27;;;;;;;0.97;100.00;102806.94;1027782;28;20627;-76
2023/01/29 01:20:09;;;;;;;22.38;15.52;;;;;;;0.93;100.00;102810.72;1024463;28;20311;-76
2023/01/29 01:20:41;;;;;;;26.35;16.20;;;;;;;0.91;100.00;102810.81;1028020;28;20385;-76
2023/01/29 01:21:12;;;;;;;24.70;16.67;;;;;;;0.89;100.00;102810.09;1031751;28;20656;-76
2023/01/29 01:21:46;;;;;;;28.48;17.67;;;;;;;0.91;100.00;102810.00;1028577;28;20291;-75
2023/01/29 01:22:18;;;;;;;25.95;18.02;;;;;;;0.87;100.00;102804.13;1023459;29;20306;-76
2023/01/29 01:22:52;;;;;;;27.48;17.00;;;;;;;0.93;100.00;102811.56;1019755;29;20840;-74
2023/01/29 01:23:24;;;;;;;26.77;17.95;;;;;;;0.95;100.00;102805.38;1019848;29;20355;-76
2023/01/29 01:23:56;;;;;;;28.20;18.20;;;;;;;0.87;100.00;102800.66;1017990;29;20349;-76
2023/01/29 01:24:28;;;;;;;24.60;18.83;;;;;;;0.87;100.00;102806.75;1017549;29;20682;-75
2023/01/29 01:24:59;;;;;;;27.45;20.77;;;;;;;0.88;100.00;102800.53;1020958;29;20414;-76
2023/01/29 01:25:31;;;;;;;26.67;19.70;;;;;;;0.91;100.00;102797.72;1023964;28;20310;-75
2023/01/29 01:26:07;;;;;;;24.77;20.10;;;;;;;0.93;100.00;102801.06;1020480;29;20291;-76
2023/01/29 01:26:39;;;;;;;24.90;19.08;;;;;;;0.98;100.00;102802.53;1019597;29;20643;-76
2023/01/29 01:27:11;;;;;;;27.95;21.80;;;;;;;0.95;100.00;102802.75;1019714;29;20789;-76
2023/01/29 01:27:43;;;;;;;28.50;21.70;;;;;;;0.93;100.00;102795.81;1015845;29;20300;-76
2023/01/29 01:28:15;;;;;;;26.20;20.73;;;;;;;1.01;100.00;102805.78;1020315;29;20306;-76
2023/01/29 01:28:47;;;;;;;29.67;21.98;;;;;;;0.89;100.00;102794.34;1020448;29;20306;-76
2023/01/29 01:29:18;;;;;;;27.70;21.05;;;;;;;0.96;100.00;102794.75;1023711;28;20310;-76
2023/01/29 01:29:50;;;;;;;28.10;20.13;;;;;;;0.93;100.00;102795.81;1028009;28;20287;-76
2023/01/29 01:30:22;;;;;;;25.95;20.73;;;;;;;0.92;100.00;102799.38;1028070;28;20305;-76
2023/01/29 01:30:54;;;;;;;26.70;21.17;;;;;;;0.95;100.00;102797.50;1031628;28;20793;-75
2023/01/29 01:31:25;;;;;;;28.30;21.63;;;;;;;0.97;100.00;102795.59;1031967;28;20388;-76
2023/01/29 01:31:58;;;;;;;27.80;20.65;;;;;;;0.92;100.00;102794.13;1024886;28;20306;-76
2023/01/29 01:32:30;;;;;;;27.60;22.17;;;;;;;0.91;100.00;102787.22;1019266;29;20307;-76
2023/01/29 01:33:01;;;;;;;27.40;20.17;;;;;;;0.95;100.00;102792.25;1020708;28;20709;-76
2023/01/29 01:33:36;;;;;;;24.65;19.52;;;;;;;0.93;100.00;102793.19;1027915;28;20302;-76
2023/01/29 01:34:07;;;;;;;29.10;20.50;;;;;;;0.88;100.00;102797.09;1024737;28;20294;-76
2023/01/29 01:34:39;;;;;;;27.08;19.70;;;;;;;0.88;100.00;102797.09;1023673;29;20333;-76
2023/01/29 01:35:11;;;;;;;28.42;21.73;;;;;;;0.95;100.00;102797.50;1019501;29;20319;-76
2023/01/29 01:35:43;;;;;;;27.63;19.67;;;;;;;0.92;100.00;102799.38;1017305;29;20308;-75
2023/01/29 01:36:16;;;;;;;25.00;19.92;;;;;;;0.91;100.00;102802.94;1024114;28;20306;-76
2023/01/29 01:36:47;;;;;;;25.90;20.63;;;;;;;0.91;100.00;102792.47;1024258;28;20307;-76
2023/01/29 01:37:19;;;;;;;25.83;20.35;;;;;;;0.89;100.00;102799.59;1024341;28;20303;-76
2023/01/29 01:37:53;;;;;;;25.05;19.98;;;;;;;0.91;100.00;102802.13;1025474;28;20418;-76
2023/01/29 01:38:24;;;;;;;33.20;21.40;;;;;;;0.99;100.00;102798.97;1023682;29;20298;-76
2023/01/29 01:38:56;;;;;;;28.50;20.95;;;;;;;0.90;100.00;102796.03;1016730;29;20303;-76
2023/01/29 01:39:27;;;;;;;28.77;22.75;;;;;;;0.89;100.00;102804.84;1019726;29;20307;-76
2023/01/29 01:40:00;;;;;;;26.83;21.35;;;;;;;0.91;100.00;102800.34;1020427;29;20793;-76
2023/01/29 01:40:31;;;;;;;25.92;20.88;;;;;;;0.96;100.00;102807.03;1024001;28;20325;-76
2023/01/29 01:41:03;;;;;;;24.85;19.10;;;;;;;0.95;100.00;102802.75;1030242;28;20317;-76
2023/01/29 01:41:35;;;;;;;29.33;21.20;;;;;;;0.93;100.00;102808.94;1027720;28;20313;-75
2023/01/29 01:42:12;;;;;;;26.02;20.35;;;;;;;0.87;100.00;102796.25;1027310;28;20309;-75
2023/01/29 01:42:50;;;;;;;27.90;20.13;;;;;;;0.88;100.00;102792.69;1027709;28;20305;-75
2023/01/29 01:43:21;;;;;;;27.80;19.60;;;;;;;0.91;100.00;102797.72;1025131;28;20869;-76
2023/01/29 01:44:01;;;;;;;28.75;19.60;;;;;;;0.89;100.00;102796.13;1029712;28;20305;-76
2023/01/29 01:45:05;;;;;;;23.50;19.40;;;;;;;0.90;100.00;102792.56;1019443;29;20307;-76
2023/01/29 01:45:37;;;;;;;26.30;19.13;;;;;;;0.89;100.00;102791.72;1021553;29;20789;-76
2023/01/29 01:46:09;;;;;;;27.60;19.50;;;;;;;0.89;100.00;102789.09;1020707;28;20303;-76
2023/01/29 01:46:40;;;;;;;24.83;20.05;;;;;;;0.89;100.00;102791.72;1026374;28;20330;-76
2023/01/29 01:47:12;;;;;;;30.95;21.13;;;;;;;0.88;100.00;102787.44;1028000;28;20303;-76
2023/01/29 01:47:48;;;;;;;26.27;19.30;;;;;;;0.90;100.00;102792.56;1025904;28;20318;-76
2023/01/29 01:48:24;;;;;;;25.35;19.92;;;;;;;0.95;100.00;102787.00;1029382;28;20301;-76
2023/01/29 01:49:03;;;;;;;27.50;20.05;;;;;;;0.91;100.00;102787.22;1027377;28;20302;-76
2023/01/29 01:49:34;;;;;;;27.40;19.75;;;;;;;0.97;100.00;102785.09;1023659;29;20795;-75
2023/01/29 01:50:16;;;;;;;27.58;21.48;;;;;;;0.99;100.00;102783.22;1023667;29;20306;-75
2023/01/29 01:51:04;;;;;;;25.95;19.77;;;;;;;0.98;100.00;102785.00;1023299;28;20318;-75
2023/01/29 01:51:40;;;;;;;27.33;20.70;;;;;;;0.93;100.00;102790.56;1031771;28;20301;-76
2023/01/29 01:52:15;;;;;;;26.77;18.45;;;;;;;0.90;100.00;102784.69;1023339;29;20338;-75
2023/01/29 01:52:51;;;;;;;29.17;20.80;;;;;;;0.92;100.00;102785.44;1027635;28;20341;-76
2023/01/29 01:53:33;;;;;;;25.85;18.83;;;;;;;0.92;100.00;102780.19;1023475;29;20840;-76
2023/01/29 01:54:11;;;;;;;25.73;19.08;;;;;;;0.88;100.00;102791.84;1025730;28;20294;-76
2023/01/29 01:54:43;;;;;;;27.63;19.25;;;;;;;0.89;100.00;102791.72;1023404;29;20868;-76
2023/01/29 01:55:19;;;;;;;27.83;20.73;;;;;;;0.91;100.00;102792.47;1022493;29;20693;-75
2023/01/29 01:55:58;;;;;;;28.40;20.63;;;;;;;0.88;100.00;102797.91;1017847;29;20304;-76
2023/01/29 01:56:37;;;;;;;28.67;20.27;;;;;;;0.83;100.00;102800.03;1015235;29;20333;-76
2023/01/29 01:57:14;;;;;;;28.55;19.30;;;;;;;0.92;100.00;102798.53;1012024;29;20831;-75
2023/01/29 01:57:51;;;;;;;27.58;19.70;;;;;;;0.90;100.00;102800.44;1019606;29;20299;-76
2023/01/29 01:58:33;;;;;;;25.23;19.85;;;;;;;0.89;100.00;102809.25;1018179;29;20830;-76
2023/01/29 01:59:09;;;;;;;26.00;19.88;;;;;;;0.90;100.00;102801.28;1018082;29;20387;-76
2023/01/29 01:59:47;;;;;;;25.88;19.10;;;;;;;0.89;100.00;102799.59;1019319;29;20287;-76
2023/01/29 02:00:20;;;;;;;26.42;19.52;;;;;;;0.88;100.00;102797.91;1022892;29;20785;-76
2023/01/29 02:00:52;;;;;;;26.45;19.92;;;;;;;0.92;100.00;102798.53;1024021;28;20845;-76
2023/01/29 02:01:28;;;;;;;25.80;20.33;;;;;;;0.93;100.00;102801.06;1025251;28;20940;-76
2023/01/29 02:10:01;;;;;;;22.88;15.52;;;;;;;0.95;100.00;102813.25;1019375;29;20327;-76
2023/01/29 02:10:42;;;;;;;24.58;14.93;;;;;;;0.90;100.00;102814.41;1018985;29;20304;-76
2023/01/29 02:11:14;;;;;;;24.60;16.75;;;;;;;0.89;100.00;102806.63;1019902;29;20669;-76
2023/01/29 02:11:45;;;;;;;22.42;15.98;;;;;;;0.86;100.00;102806.84;1025868;28;20310;-76
2023/01/29 02:12:18;;;;;;;24.63;16.33;;;;;;;0.90;100.00;102800.44;1021444;29;20676;-76
2023/01/29 02:12:50;;;;;;;25.17;16.95;;;;;;;0.89;100.00;102809.25;1024493;28;20815;-76
2023/01/29 02:13:22;;;;;;;21.58;15.93;;;;;;;0.87;100.00;102804.13;1027363;28;20417;-76
2023/01/29 02:13:53;;;;;;;26.13;16.42;;;;;;;0.89;100.00;102804.84;1027788;28;20302;-75
2023/01/29 02:14:30;;;;;;;31.00;16.52;;;;;;;0.90;100.00;102806.53;1027536;28;20412;-76
2023/01/29 02:15:03;;;;;;;24.40;15.95;;;;;;;0.95;100.00;102813.25;1024383;28;20445;-76
2023/01/29 02:15:35;;;;;;;26.38;17.17;;;;;;;0.88;100.00;102802.31;1023597;29;20384;-76
2023/01/29 02:16:07;;;;;;;24.80;16.73;;;;;;;0.86;100.00;102807.69;1025003;28;20306;-76
2023/01/29 02:16:38;;;;;;;26.55;17.83;;;;;;;0.88;100.00;102810.19;1028381;28;20302;-75
2023/01/29 02:17:13;;;;;;;25.15;16.90;;;;;;;0.89;100.00;102815.34;1032082;28;20313;-76
2023/01/29 02:17:47;;;;;;;26.85;17.65;;;;;;;0.97;100.00;102811.34;1031188;28;20309;-76
2023/01/29 02:18:20;;;;;;;25.65;17.08;;;;;;;0.95;100.00;102815.84;1031533;28;20795;-76
2023/01/29 02:18:52;;;;;;;24.15;16.75;;;;;;;0.88;100.00;102808.41;1025350;28;20306;-76
2023/01/29 02:19:57;;;;;;;26.08;15.30;;;;;;;0.91;100.00;102813.44;1027678;28;20716;-76
2023/01/29 02:20:31;;;;;;;26.60;16.98;;;;;;;0.89;100.00;102810.09;1031135;28;20298;-76
2023/01/29 02:21:24;;;;;;;24.13;16.40;;;;;;;0.88;100.00;102803.16;1031642;28;20534;-76
2023/01/29 02:22:33;;;;;;;23.45;15.02;;;;;;;0.88;100.00;102805.78;1027319;28;20305;-76
2023/01/29 02:23:26;;;;;;;23.85;16.35;;;;;;;0.87;100.00;102801.50;1027225;28;20298;-76
2023/01/29 02:24:16;;;;;;;24.08;15.45;;;;;;;0.90;100.00;102801.28;1027415;28;20668;-76
2023/01/29 02:25:15;;;;;;;25.60;15.73;;;;;;;0.89;100.00;102804.84;1029220;28;20296;-75
2023/01/29 02:26:12;;;;;;;24.02;15.35;;;;;;;0.89;100.00;102815.34;1034200;28;20304;-76
2023/01/29 02:26:54;;;;;;;26.35;15.38;;;;;;;0.99;100.00;102805.03;1035929;28;20300;-76
2023/01/29 02:27:46;;;;;;;25.60;14.77;;;;;;;0.95;100.00;102810.63;1031310;28;20312;-76
2023/01/29 02:28:35;;;;;;;23.23;15.85;;;;;;;0.91;100.00;102813.44;1027444;28;20318;-76
2023/01/29 02:29:32;;;;;;;24.33;15.45;;;;;;;1.02;100.00;102814.50;1023261;29;20394;-76
2023/01/29 02:30:27;;;;;;;25.20;14.75;;;;;;;0.88;100.00;102815.44;1025491;28;20302;-76
2023/01/29 02:31:13;;;;;;;24.95;15.45;;;;;;;0.84;100.00;102812.19;1025023;28;20310;-75
2023/01/29 02:32:10;;;;;;;26.33;16.02;;;;;;;0.86;100.00;102810.31;1019380;29;20824;-76
2023/01/29 02:32:57;;;;;;;24.25;14.25;;;;;;;0.92;100.00;102816.91;1015548;28;20369;-75
2023/01/29 02:33:35;;;;;;;22.85;14.15;;;;;;;0.85;100.00;102816.50;1026714;28;20306;-76
2023/01/29 02:35:36;;;;;;;22.80;14.27;;;;;;;0.80;100.00;102812.47;1031328;28;20297;-76
2023/01/29 02:36:14;;;;;;;23.33;13.88;;;;;;;0.76;100.00;102809.22;1027109;28;20085;-76
2023/01/29 02:36:50;;;;;;;26.45;17.55;;;;;;;0.80;100.00;102815.09;1027681;28;20302;-76
2023/01/29 02:37:37;;;;;;;24.00;14.90;;;;;;;0.92;100.00;102822.16;1029844;28;20297;-76
2023/01/29 02:38:11;;;;;;;22.70;14.82;;;;;;;0.90;100.00;102817.03;1023666;29;20291;-76
2023/01/29 02:38:55;;;;;;;24.33;15.57;;;;;;;0.86;100.00;102820.81;1019527;29;20398;-76
2023/01/29 02:39:37;;;;;;;24.70;15.18;;;;;;;0.93;100.00;102826.47;1023428;28;20306;-76
2023/01/29 02:40:27;;;;;;;29.38;17.95;;;;;;;0.84;100.00;102817.44;1031226;28;20309;-75
2023/01/29 02:41:01;;;;;;;23.92;15.45;;;;;;;0.89;100.00;102823.22;1031668;28;20307;-76
2023/01/29 02:41:42;;;;;;;30.10;17.45;;;;;;;0.88;100.00;102823.31;1023311;29;20093;-76
2023/01/29 02:42:36;;;;;;;26.95;16.80;;;;;;;0.82;100.00;102828.94;1023478;29;20765;-76
2023/01/29 02:43:18;;;;;;;24.25;15.40;;;;;;;0.88;100.00;102823.31;1021457;28;20082;-76
2023/01/29 02:44:02;;;;;;;29.00;14.70;;;;;;;0.86;100.00;102819.97;1023344;29;20354;-75
2023/01/29 02:44:39;;;;;;;20.60;14.30;;;;;;;0.91;100.00;102823.94;1023287;29;20310;-76
2023/01/29 02:45:21;;;;;;;27.05;16.63;;;;;;;0.87;100.00;102826.88;1019493;29;20311;-76
2023/01/29 02:46:12;;;;;;;30.42;17.13;;;;;;;0.85;100.00;102824.38;1015356;29;20304;-76
2023/01/29 02:47:10;;;;;;;24.52;15.07;;;;;;;0.97;100.00;102827.09;1019917;29;20312;-76
2023/01/29 02:47:47;;;;;;;24.17;15.60;;;;;;;0.89;100.00;102825.00;1022703;28;20055;-76
2023/01/29 02:48:21;;;;;;;23.92;15.93;;;;;;;0.88;100.00;102829.41;1031098;28;20737;-76
2023/01/29 02:49:14;;;;;;;24.27;16.73;;;;;;;0.88;100.00;102839.91;1023199;29;20692;-76
2023/01/29 02:50:03;;;;;;;24.20;16.17;;;;;;;0.90;100.00;102838.00;1019636;29;20342;-76
2023/01/29 02:51:25;;;;;;;27.25;16.17;;;;;;;0.95;100.00;102835.06;1019953;28;20299;-76
2023/01/29 02:52:03;;;;;;;24.23;16.83;;;;;;;0.96;100.00;102835.91;1022975;29;20883;-76
2023/01/29 02:52:55;;;;;;;24.42;16.25;;;;;;;0.91;100.00;102836.22;1022929;29;20333;-76
2023/01/29 02:53:34;;;;;;;21.80;14.90;;;;;;;0.92;100.00;102835.28;1021740;29;20295;-76
2023/01/29 02:54:20;;;;;;;23.90;15.73;;;;;;;0.96;100.00;102842.00;1018024;29;20407;-76
2023/01/29 02:55:01;;;;;;;23.80;16.13;;;;;;;0.95;100.00;102839.47;1023126;29;20497;-76
2023/01/29 02:55:52;;;;;;;;;;;;;;;0.93;100.00;102836.97;1019713;29;20339;-76
2023/01/29 02:56:48;;;;;;;19.45;13.25;;;;;;;0.92;100.00;102836.13;1014876;29;20293;-76
2023/01/29 02:57:23;;;;;;;23.80;14.75;;;;;;;1.01;100.00;102833.81;1016443;29;20407;-76
2023/01/29 02:58:01;;;;;;;23.17;14.20;;;;;;;0.98;100.00;102840.09;1018674;29;20310;-76
2023/01/29 02:58:42;;;;;;;24.95;16.08;;;;;;;0.95;100.00;102842.09;1019545;29;20295;-76
2023/01/29 02:59:19;;;;;;;27.17;16.27;;;;;;;0.93;100.00;102840.41;1017439;29;20303;-76
2023/01/29 02:59:58;;;;;;;31.38;17.38;;;;;;;0.96;100.00;102835.91;1018753;29;20306;-76